CCA1915 ZBAA-ZHCC
Flight info
| Callsign | CCA1915 |
|---|---|
| Flight time | 1h 14m |
| Altitude | 30100 |
| Route | RUSDO6J RUSDO W45 VAGBI B215 EKETA/K0828S1130 B208 NOPIN NOP6V |
| Aircraft | A320/M-SDE2E3FGILORWXY/LB1D1 |
Departure
| Time | 2026-05-05 02:57 |
|---|---|
| Airport | Beijing Capital International Airport (ZBAA) |
Arrival
| Time | 2026-05-05 04:11 |
|---|---|
| Airport | Zhengzhou Xinzheng International Airport (ZHCC) |
| Time | Latitude | Longitude | Altitude | Speed | Heading |
|---|---|---|---|---|---|
| 2026-05-05 02:45 | 40.05864 | 116.60694 | 125 ft | 0 kts | 83° |
| 2026-05-05 02:51 | 40.05863 | 116.60684 | 128 ft | 2 kts | 83° |
| 2026-05-05 02:51 | 40.05861 | 116.60663 | 125 ft | 2 kts | 83° |
| 2026-05-05 02:51 | 40.05859 | 116.60642 | 119 ft | 2 kts | 83° |
| 2026-05-05 02:52 | 40.05857 | 116.60621 | 114 ft | 2 kts | 85° |
| 2026-05-05 02:52 | 40.05859 | 116.60600 | 120 ft | 2 kts | 119° |
| 2026-05-05 02:52 | 40.05869 | 116.60584 | 121 ft | 2 kts | 160° |
| 2026-05-05 02:52 | 40.05884 | 116.60578 | 120 ft | 0 kts | 173° |
| 2026-05-05 02:53 | 40.05883 | 116.60578 | 124 ft | 1 kts | 173° |
| 2026-05-05 02:54 | 40.05865 | 116.60581 | 122 ft | 5 kts | 173° |
| 2026-05-05 02:54 | 40.05817 | 116.60588 | 122 ft | 8 kts | 173° |
| 2026-05-05 02:54 | 40.05774 | 116.60570 | 121 ft | 6 kts | 229° |
| 2026-05-05 02:54 | 40.05755 | 116.60512 | 122 ft | 10 kts | 261° |
| 2026-05-05 02:55 | 40.05744 | 116.60389 | 122 ft | 15 kts | 263° |
| 2026-05-05 02:55 | 40.05732 | 116.60255 | 119 ft | 15 kts | 262° |
| 2026-05-05 02:55 | 40.05720 | 116.60122 | 120 ft | 15 kts | 263° |
| 2026-05-05 02:55 | 40.05725 | 116.59998 | 122 ft | 13 kts | 313° |
| 2026-05-05 02:56 | 40.05817 | 116.59973 | 121 ft | 20 kts | 352° |
| 2026-05-05 02:56 | 40.06186 | 116.59915 | 120 ft | 88 kts | 353° |
| 2026-05-05 02:56 | 40.06991 | 116.59789 | 122 ft | 143 kts | 353° |
| 2026-05-05 02:56 | 40.08110 | 116.59615 | 310 ft | 170 kts | 354° |
| 2026-05-05 02:57 | 40.09296 | 116.59431 | 956 ft | 174 kts | 354° |
| 2026-05-05 02:57 | 40.10513 | 116.59245 | 1622 ft | 177 kts | 354° |
| 2026-05-05 02:57 | 40.11732 | 116.59053 | 2286 ft | 177 kts | 353° |
| 2026-05-05 02:57 | 40.12955 | 116.58860 | 2919 ft | 177 kts | 351° |
| 2026-05-05 02:58 | 40.14192 | 116.58665 | 3436 ft | 185 kts | 349° |
| 2026-05-05 02:58 | 40.15542 | 116.58441 | 3715 ft | 207 kts | 348° |
| 2026-05-05 02:58 | 40.17048 | 116.58188 | 3957 ft | 230 kts | 348° |
| 2026-05-05 02:58 | 40.18697 | 116.57916 | 4276 ft | 249 kts | 348° |
| 2026-05-05 02:59 | 40.20476 | 116.57634 | 4783 ft | 262 kts | 348° |
| 2026-05-05 02:59 | 40.22305 | 116.57354 | 5475 ft | 267 kts | 348° |
| 2026-05-05 02:59 | 40.24131 | 116.56924 | 6186 ft | 266 kts | 336° |
| 2026-05-05 02:59 | 40.25800 | 116.55928 | 6894 ft | 262 kts | 321° |
| 2026-05-05 03:00 | 40.27210 | 116.54445 | 7614 ft | 261 kts | 313° |
| 2026-05-05 03:00 | 40.28571 | 116.52851 | 8370 ft | 263 kts | 313° |
| 2026-05-05 03:00 | 40.29913 | 116.51216 | 9098 ft | 263 kts | 306° |
| 2026-05-05 03:00 | 40.30933 | 116.49262 | 9813 ft | 259 kts | 290° |
| 2026-05-05 03:01 | 40.31517 | 116.47041 | 10478 ft | 257 kts | 276° |
| 2026-05-05 03:01 | 40.31656 | 116.44714 | 11136 ft | 258 kts | 267° |
| 2026-05-05 03:01 | 40.31646 | 116.42266 | 11439 ft | 281 kts | 267° |
| 2026-05-05 03:01 | 40.31638 | 116.39601 | 11659 ft | 304 kts | 268° |
| 2026-05-05 03:02 | 40.31634 | 116.36724 | 11818 ft | 328 kts | 268° |
| 2026-05-05 03:02 | 40.31634 | 116.33666 | 12170 ft | 341 kts | 268° |
| 2026-05-05 03:02 | 40.31636 | 116.30530 | 12777 ft | 347 kts | 269° |
| 2026-05-05 03:02 | 40.31639 | 116.27349 | 13428 ft | 352 kts | 269° |
| 2026-05-05 03:03 | 40.31643 | 116.24125 | 14056 ft | 356 kts | 269° |
| 2026-05-05 03:03 | 40.31643 | 116.20870 | 14657 ft | 359 kts | 269° |
| 2026-05-05 03:03 | 40.31642 | 116.17583 | 15245 ft | 362 kts | 269° |
| 2026-05-05 03:03 | 40.31639 | 116.14268 | 15837 ft | 366 kts | 270° |
| 2026-05-05 03:04 | 40.31634 | 116.10921 | 16415 ft | 369 kts | 270° |
| 2026-05-05 03:04 | 40.31626 | 116.07548 | 16990 ft | 372 kts | 270° |
| 2026-05-05 03:04 | 40.31602 | 116.04143 | 17558 ft | 375 kts | 267° |
| 2026-05-05 03:04 | 40.31154 | 116.00765 | 18083 ft | 380 kts | 253° |
| 2026-05-05 03:05 | 40.30075 | 115.97588 | 18555 ft | 385 kts | 240° |
| 2026-05-05 03:05 | 40.28414 | 115.94815 | 19043 ft | 391 kts | 227° |
| 2026-05-05 03:05 | 40.26253 | 115.92623 | 19546 ft | 398 kts | 213° |
| 2026-05-05 03:05 | 40.23797 | 115.90920 | 20037 ft | 401 kts | 211° |
| 2026-05-05 03:06 | 40.21310 | 115.89237 | 20457 ft | 405 kts | 211° |
| 2026-05-05 03:06 | 40.18771 | 115.87518 | 20570 ft | 416 kts | 211° |
| 2026-05-05 03:06 | 40.16176 | 115.85762 | 20833 ft | 423 kts | 211° |
| 2026-05-05 03:06 | 40.13560 | 115.83992 | 21242 ft | 425 kts | 211° |
| 2026-05-05 03:07 | 40.10929 | 115.82211 | 21634 ft | 427 kts | 211° |
| 2026-05-05 03:07 | 40.08280 | 115.80421 | 22003 ft | 430 kts | 211° |
| 2026-05-05 03:07 | 40.05614 | 115.78625 | 22369 ft | 432 kts | 211° |
| 2026-05-05 03:07 | 40.02933 | 115.76821 | 22702 ft | 435 kts | 211° |
| 2026-05-05 03:08 | 40.00241 | 115.75008 | 23049 ft | 437 kts | 211° |
| 2026-05-05 03:08 | 39.97529 | 115.73181 | 23420 ft | 440 kts | 211° |
| 2026-05-05 03:08 | 39.94805 | 115.71345 | 23749 ft | 442 kts | 211° |
| 2026-05-05 03:08 | 39.92070 | 115.69501 | 24086 ft | 444 kts | 211° |
| 2026-05-05 03:09 | 39.89320 | 115.67648 | 24424 ft | 446 kts | 211° |
| 2026-05-05 03:09 | 39.86700 | 115.65511 | 24725 ft | 443 kts | 220° |
| 2026-05-05 03:09 | 39.84388 | 115.62880 | 24971 ft | 441 kts | 229° |
| 2026-05-05 03:09 | 39.82442 | 115.59816 | 25255 ft | 439 kts | 238° |
| 2026-05-05 03:10 | 39.80884 | 115.56409 | 25531 ft | 438 kts | 245° |
| 2026-05-05 03:10 | 39.79459 | 115.52899 | 25822 ft | 440 kts | 245° |
| 2026-05-05 03:10 | 39.78017 | 115.49374 | 26117 ft | 442 kts | 244° |
| 2026-05-05 03:10 | 39.76566 | 115.45841 | 26400 ft | 444 kts | 244° |
| 2026-05-05 03:11 | 39.75112 | 115.42291 | 26673 ft | 446 kts | 245° |
| 2026-05-05 03:11 | 39.73679 | 115.38714 | 27012 ft | 446 kts | 245° |
| 2026-05-05 03:11 | 39.72270 | 115.35140 | 27443 ft | 444 kts | 246° |
| 2026-05-05 03:11 | 39.70867 | 115.31563 | 27774 ft | 444 kts | 246° |
| 2026-05-05 03:12 | 39.69468 | 115.27993 | 28114 ft | 444 kts | 246° |
| 2026-05-05 03:12 | 39.68067 | 115.24427 | 28520 ft | 442 kts | 246° |
| 2026-05-05 03:12 | 39.66664 | 115.20881 | 28919 ft | 441 kts | 246° |
| 2026-05-05 03:12 | 39.65258 | 115.17346 | 29322 ft | 441 kts | 246° |
| 2026-05-05 03:13 | 39.63848 | 115.13815 | 29716 ft | 440 kts | 246° |
| 2026-05-05 03:13 | 39.62436 | 115.10285 | 29857 ft | 442 kts | 245° |
| 2026-05-05 03:13 | 39.61018 | 115.06747 | 29880 ft | 443 kts | 245° |
| 2026-05-05 03:14 | 39.58176 | 114.99662 | 29868 ft | 443 kts | 246° |
| 2026-05-05 03:14 | 39.55333 | 114.92571 | 29871 ft | 443 kts | 246° |
| 2026-05-05 03:15 | 39.52484 | 114.85482 | 29878 ft | 444 kts | 246° |
| 2026-05-05 03:15 | 39.49632 | 114.78400 | 29878 ft | 443 kts | 246° |
| 2026-05-05 03:16 | 39.46781 | 114.71324 | 29867 ft | 443 kts | 245° |
| 2026-05-05 03:16 | 39.43924 | 114.64248 | 29866 ft | 444 kts | 245° |
| 2026-05-05 03:17 | 39.41053 | 114.57176 | 29864 ft | 444 kts | 245° |
| 2026-05-05 03:17 | 39.38172 | 114.50105 | 29860 ft | 444 kts | 245° |
| 2026-05-05 03:18 | 39.35284 | 114.43041 | 29862 ft | 445 kts | 245° |
| 2026-05-05 03:18 | 39.33226 | 114.38006 | 29859 ft | 445 kts | 245° |
| 2026-05-05 03:19 | 39.28878 | 114.27422 | 29863 ft | 445 kts | 245° |
| 2026-05-05 03:19 | 39.25907 | 114.20460 | 29871 ft | 448 kts | 239° |
| 2026-05-05 03:20 | 39.21525 | 114.14657 | 29870 ft | 459 kts | 219° |
| 2026-05-05 03:20 | 39.18751 | 114.12575 | 29865 ft | 465 kts | 208° |
| 2026-05-05 03:20 | 39.15695 | 114.11155 | 29867 ft | 470 kts | 199° |
| 2026-05-05 03:21 | 39.09393 | 114.08920 | 29871 ft | 470 kts | 199° |
| 2026-05-05 03:21 | 39.03079 | 114.06673 | 29883 ft | 471 kts | 199° |
| 2026-05-05 03:22 | 38.96755 | 114.04422 | 29864 ft | 472 kts | 199° |
| 2026-05-05 03:22 | 38.90425 | 114.02178 | 29867 ft | 472 kts | 199° |
| 2026-05-05 03:23 | 38.84086 | 113.99935 | 29889 ft | 473 kts | 199° |
| 2026-05-05 03:23 | 38.81199 | 113.98914 | 29891 ft | 473 kts | 199° |
| 2026-05-05 03:24 | 38.74851 | 113.96666 | 29886 ft | 473 kts | 199° |
| 2026-05-05 03:24 | 38.68502 | 113.94430 | 29884 ft | 474 kts | 199° |
| 2026-05-05 03:25 | 38.62149 | 113.92192 | 29889 ft | 473 kts | 199° |
| 2026-05-05 03:25 | 38.55799 | 113.89957 | 29886 ft | 473 kts | 199° |
| 2026-05-05 03:26 | 38.49447 | 113.87715 | 29891 ft | 474 kts | 199° |
| 2026-05-05 03:26 | 38.43095 | 113.85475 | 29890 ft | 473 kts | 199° |
| 2026-05-05 03:27 | 38.37127 | 113.82199 | 29878 ft | 465 kts | 217° |
| 2026-05-05 03:27 | 38.32437 | 113.76707 | 29876 ft | 455 kts | 236° |
| 2026-05-05 03:28 | 38.29335 | 113.69780 | 29886 ft | 450 kts | 248° |
| 2026-05-05 03:28 | 38.27085 | 113.63817 | 29887 ft | 450 kts | 248° |
| 2026-05-05 03:29 | 38.24361 | 113.56654 | 29884 ft | 450 kts | 247° |
| 2026-05-05 03:29 | 38.21631 | 113.49489 | 29886 ft | 451 kts | 247° |
| 2026-05-05 03:30 | 38.18904 | 113.42311 | 29892 ft | 451 kts | 247° |
| 2026-05-05 03:30 | 38.16171 | 113.35139 | 29909 ft | 451 kts | 248° |
| 2026-05-05 03:31 | 38.13475 | 113.27957 | 29913 ft | 450 kts | 248° |
| 2026-05-05 03:31 | 38.10809 | 113.20766 | 29920 ft | 450 kts | 248° |
| 2026-05-05 03:32 | 38.08132 | 113.13575 | 29918 ft | 451 kts | 248° |
| 2026-05-05 03:32 | 38.05436 | 113.06381 | 29925 ft | 451 kts | 248° |
| 2026-05-05 03:33 | 38.02736 | 112.99191 | 29930 ft | 451 kts | 248° |
| 2026-05-05 03:33 | 38.00029 | 112.92013 | 29940 ft | 451 kts | 248° |
| 2026-05-05 03:34 | 37.97315 | 112.84840 | 29946 ft | 451 kts | 248° |
| 2026-05-05 03:34 | 37.94601 | 112.77665 | 29936 ft | 452 kts | 248° |
| 2026-05-05 03:35 | 37.91869 | 112.70496 | 29945 ft | 452 kts | 246° |
| 2026-05-05 03:35 | 37.90140 | 112.67146 | 29947 ft | 459 kts | 233° |
| 2026-05-05 03:35 | 37.87814 | 112.64356 | 29950 ft | 466 kts | 219° |
| 2026-05-05 03:36 | 37.84981 | 112.62324 | 29946 ft | 473 kts | 205° |
| 2026-05-05 03:36 | 37.81792 | 112.61215 | 29945 ft | 480 kts | 191° |
| 2026-05-05 03:36 | 37.78446 | 112.61128 | 29933 ft | 485 kts | 175° |
| 2026-05-05 03:36 | 37.75110 | 112.61848 | 29934 ft | 487 kts | 171° |
| 2026-05-05 03:37 | 37.68497 | 112.63808 | 29938 ft | 489 kts | 167° |
| 2026-05-05 03:37 | 37.61943 | 112.66141 | 29939 ft | 490 kts | 166° |
| 2026-05-05 03:38 | 37.55385 | 112.68470 | 29928 ft | 490 kts | 166° |
| 2026-05-05 03:38 | 37.48804 | 112.70683 | 29934 ft | 489 kts | 167° |
| 2026-05-05 03:39 | 37.42213 | 112.72844 | 29938 ft | 489 kts | 167° |
| 2026-05-05 03:39 | 37.35623 | 112.75021 | 29946 ft | 490 kts | 167° |
| 2026-05-05 03:40 | 37.29033 | 112.77208 | 29944 ft | 490 kts | 166° |
| 2026-05-05 03:40 | 37.22442 | 112.79391 | 29966 ft | 490 kts | 166° |
| 2026-05-05 03:41 | 37.15863 | 112.81576 | 29975 ft | 489 kts | 166° |
| 2026-05-05 03:41 | 37.09295 | 112.83753 | 29981 ft | 488 kts | 166° |
| 2026-05-05 03:42 | 37.02735 | 112.85921 | 29976 ft | 487 kts | 166° |
| 2026-05-05 03:42 | 36.96178 | 112.88083 | 29974 ft | 487 kts | 166° |
| 2026-05-05 03:43 | 36.89619 | 112.90239 | 29973 ft | 487 kts | 166° |
| 2026-05-05 03:43 | 36.83066 | 112.92394 | 29968 ft | 487 kts | 166° |
| 2026-05-05 03:44 | 36.76516 | 112.94549 | 29966 ft | 486 kts | 166° |
| 2026-05-05 03:44 | 36.69974 | 112.96694 | 29964 ft | 486 kts | 166° |
| 2026-05-05 03:45 | 36.63427 | 112.98829 | 29965 ft | 486 kts | 166° |
| 2026-05-05 03:45 | 36.56875 | 113.00965 | 29967 ft | 487 kts | 166° |
| 2026-05-05 03:46 | 36.50325 | 113.03116 | 29971 ft | 487 kts | 166° |
| 2026-05-05 03:46 | 36.43780 | 113.05254 | 29971 ft | 487 kts | 166° |
| 2026-05-05 03:47 | 36.37224 | 113.07385 | 29639 ft | 488 kts | 166° |
| 2026-05-05 03:47 | 36.33942 | 113.08450 | 29134 ft | 487 kts | 166° |
| 2026-05-05 03:47 | 36.30657 | 113.09515 | 28645 ft | 488 kts | 166° |
| 2026-05-05 03:48 | 36.27372 | 113.10580 | 28163 ft | 488 kts | 166° |
| 2026-05-05 03:48 | 36.24091 | 113.11672 | 27704 ft | 489 kts | 163° |
| 2026-05-05 03:48 | 36.20878 | 113.13081 | 27239 ft | 490 kts | 160° |
| 2026-05-05 03:48 | 36.17673 | 113.14530 | 26780 ft | 490 kts | 161° |
| 2026-05-05 03:49 | 36.14461 | 113.15973 | 26332 ft | 492 kts | 161° |
| 2026-05-05 03:49 | 36.11236 | 113.17417 | 25886 ft | 494 kts | 161° |
| 2026-05-05 03:49 | 36.07999 | 113.18865 | 25445 ft | 495 kts | 160° |
| 2026-05-05 03:49 | 36.04767 | 113.20310 | 25020 ft | 495 kts | 160° |
| 2026-05-05 03:50 | 36.01523 | 113.21761 | 24594 ft | 496 kts | 160° |
| 2026-05-05 03:50 | 35.98270 | 113.23217 | 24177 ft | 498 kts | 160° |
| 2026-05-05 03:50 | 35.95012 | 113.24675 | 23770 ft | 498 kts | 160° |
| 2026-05-05 03:50 | 35.91768 | 113.26128 | 23341 ft | 495 kts | 160° |
| 2026-05-05 03:51 | 35.88534 | 113.27578 | 22853 ft | 493 kts | 160° |
| 2026-05-05 03:51 | 35.85315 | 113.29017 | 22378 ft | 491 kts | 160° |
| 2026-05-05 03:51 | 35.82115 | 113.30442 | 21910 ft | 487 kts | 160° |
| 2026-05-05 03:51 | 35.78948 | 113.31851 | 21449 ft | 483 kts | 160° |
| 2026-05-05 03:52 | 35.75795 | 113.33259 | 21005 ft | 481 kts | 160° |
| 2026-05-05 03:52 | 35.72655 | 113.34666 | 20547 ft | 479 kts | 160° |
| 2026-05-05 03:52 | 35.69535 | 113.36062 | 20107 ft | 475 kts | 160° |
| 2026-05-05 03:52 | 35.66446 | 113.37441 | 19668 ft | 471 kts | 161° |
| 2026-05-05 03:53 | 35.63370 | 113.38809 | 19239 ft | 469 kts | 161° |
| 2026-05-05 03:53 | 35.60298 | 113.40172 | 18818 ft | 468 kts | 161° |
| 2026-05-05 03:53 | 35.57250 | 113.41522 | 18400 ft | 464 kts | 161° |
| 2026-05-05 03:53 | 35.54228 | 113.42859 | 17951 ft | 459 kts | 161° |
| 2026-05-05 03:54 | 35.51234 | 113.44185 | 17484 ft | 455 kts | 161° |
| 2026-05-05 03:54 | 35.48324 | 113.45475 | 17029 ft | 451 kts | 161° |
| 2026-05-05 03:54 | 35.45386 | 113.46778 | 16568 ft | 447 kts | 161° |
| 2026-05-05 03:54 | 35.42472 | 113.48073 | 16117 ft | 444 kts | 160° |
| 2026-05-05 03:55 | 35.39584 | 113.49367 | 15665 ft | 440 kts | 160° |
| 2026-05-05 03:55 | 35.36719 | 113.50655 | 15227 ft | 437 kts | 160° |
| 2026-05-05 03:55 | 35.33883 | 113.51931 | 14794 ft | 431 kts | 160° |
| 2026-05-05 03:55 | 35.31102 | 113.53179 | 14399 ft | 420 kts | 161° |
| 2026-05-05 03:56 | 35.28400 | 113.54391 | 14112 ft | 407 kts | 161° |
| 2026-05-05 03:56 | 35.25777 | 113.55567 | 13837 ft | 396 kts | 161° |
| 2026-05-05 03:56 | 35.23221 | 113.56713 | 13539 ft | 386 kts | 161° |
| 2026-05-05 03:56 | 35.20728 | 113.57834 | 13226 ft | 377 kts | 161° |
| 2026-05-05 03:57 | 35.18299 | 113.58925 | 12917 ft | 368 kts | 161° |
| 2026-05-05 03:57 | 35.15921 | 113.59988 | 12613 ft | 359 kts | 161° |
| 2026-05-05 03:57 | 35.13597 | 113.61024 | 12311 ft | 352 kts | 161° |
| 2026-05-05 03:57 | 35.11324 | 113.62036 | 12001 ft | 344 kts | 161° |
| 2026-05-05 03:58 | 35.09098 | 113.63028 | 11707 ft | 337 kts | 161° |
| 2026-05-05 03:58 | 35.06922 | 113.63991 | 11495 ft | 328 kts | 162° |
| 2026-05-05 03:58 | 35.04808 | 113.64917 | 11330 ft | 318 kts | 162° |
| 2026-05-05 03:58 | 35.02751 | 113.65810 | 11160 ft | 309 kts | 163° |
| 2026-05-05 03:59 | 35.00754 | 113.66674 | 10976 ft | 301 kts | 162° |
| 2026-05-05 03:59 | 34.98794 | 113.67522 | 10693 ft | 297 kts | 162° |
| 2026-05-05 03:59 | 34.96853 | 113.68360 | 10409 ft | 295 kts | 162° |
| 2026-05-05 03:59 | 34.94931 | 113.69193 | 10116 ft | 292 kts | 163° |
| 2026-05-05 04:00 | 34.93026 | 113.70017 | 9841 ft | 289 kts | 163° |
| 2026-05-05 04:00 | 34.91143 | 113.70831 | 9540 ft | 286 kts | 163° |
| 2026-05-05 04:00 | 34.89248 | 113.71368 | 9232 ft | 281 kts | 176° |
| 2026-05-05 04:00 | 34.87310 | 113.71309 | 8921 ft | 277 kts | 191° |
| 2026-05-05 04:01 | 34.85472 | 113.70671 | 8622 ft | 275 kts | 204° |
| 2026-05-05 04:01 | 34.83827 | 113.69508 | 8322 ft | 273 kts | 218° |
| 2026-05-05 04:01 | 34.82473 | 113.67927 | 8021 ft | 268 kts | 227° |
| 2026-05-05 04:01 | 34.81224 | 113.66259 | 7725 ft | 264 kts | 227° |
| 2026-05-05 04:02 | 34.79993 | 113.64630 | 7454 ft | 259 kts | 227° |
| 2026-05-05 04:02 | 34.78795 | 113.63049 | 7261 ft | 251 kts | 226° |
| 2026-05-05 04:02 | 34.77673 | 113.61578 | 7076 ft | 243 kts | 226° |
| 2026-05-05 04:02 | 34.76540 | 113.60093 | 6878 ft | 236 kts | 227° |
| 2026-05-05 04:03 | 34.75446 | 113.58655 | 6690 ft | 229 kts | 226° |
| 2026-05-05 04:03 | 34.74381 | 113.57258 | 6513 ft | 222 kts | 226° |
| 2026-05-05 04:03 | 34.73333 | 113.55893 | 6328 ft | 218 kts | 223° |
| 2026-05-05 04:03 | 34.72151 | 113.54809 | 6134 ft | 215 kts | 209° |
| 2026-05-05 04:04 | 34.70771 | 113.54074 | 5880 ft | 213 kts | 202° |
| 2026-05-05 04:04 | 34.69394 | 113.53407 | 5632 ft | 213 kts | 203° |
| 2026-05-05 04:04 | 34.68044 | 113.52750 | 5399 ft | 212 kts | 203° |
| 2026-05-05 04:04 | 34.66678 | 113.52085 | 5151 ft | 211 kts | 203° |
| 2026-05-05 04:05 | 34.65283 | 113.51569 | 4903 ft | 212 kts | 184° |
| 2026-05-05 04:05 | 34.63842 | 113.51898 | 4663 ft | 215 kts | 159° |
| 2026-05-05 04:05 | 34.62637 | 113.52974 | 4419 ft | 220 kts | 134° |
| 2026-05-05 04:05 | 34.61893 | 113.54616 | 4167 ft | 225 kts | 116° |
| 2026-05-05 04:06 | 34.61380 | 113.56159 | 3952 ft | 224 kts | 117° |
| 2026-05-05 04:06 | 34.60798 | 113.57910 | 3716 ft | 223 kts | 117° |
| 2026-05-05 04:06 | 34.60213 | 113.59651 | 3464 ft | 222 kts | 117° |
| 2026-05-05 04:06 | 34.59625 | 113.61396 | 3221 ft | 222 kts | 118° |
| 2026-05-05 04:07 | 34.59278 | 113.62424 | 3097 ft | 220 kts | 118° |
| 2026-05-05 04:07 | 34.58795 | 113.63863 | 3011 ft | 205 kts | 119° |
| 2026-05-05 04:07 | 34.58271 | 113.65435 | 3007 ft | 198 kts | 118° |
| 2026-05-05 04:07 | 34.57750 | 113.66970 | 3011 ft | 197 kts | 119° |
| 2026-05-05 04:08 | 34.57228 | 113.68502 | 2860 ft | 195 kts | 118° |
| 2026-05-05 04:08 | 34.56742 | 113.69935 | 2662 ft | 192 kts | 119° |
| 2026-05-05 04:08 | 34.56481 | 113.70704 | 2527 ft | 191 kts | 118° |
| 2026-05-05 04:08 | 34.55980 | 113.72191 | 2297 ft | 180 kts | 117° |
| 2026-05-05 04:09 | 34.55516 | 113.73566 | 2082 ft | 166 kts | 118° |
| 2026-05-05 04:09 | 34.55237 | 113.74394 | 1935 ft | 156 kts | 120° |
| 2026-05-05 04:09 | 34.54713 | 113.75938 | 1657 ft | 145 kts | 119° |
| 2026-05-05 04:09 | 34.54332 | 113.77060 | 1471 ft | 143 kts | 119° |
| 2026-05-05 04:10 | 34.54079 | 113.77803 | 1350 ft | 145 kts | 120° |
| 2026-05-05 04:10 | 34.53564 | 113.79313 | 1087 ft | 144 kts | 115° |
| 2026-05-05 04:10 | 34.53332 | 113.79999 | 953 ft | 143 kts | 116° |
| 2026-05-05 04:10 | 34.52887 | 113.81321 | 737 ft | 144 kts | 114° |
| 2026-05-05 04:11 | 34.52629 | 113.82088 | 599 ft | 143 kts | 115° |
| 2026-05-05 04:11 | 34.52270 | 113.83142 | 505 ft | 128 kts | 113° |
| 2026-05-05 04:11 | 34.51933 | 113.84131 | 500 ft | 63 kts | 112° |
| 2026-05-05 04:11 | 34.51842 | 113.84398 | 501 ft | 45 kts | 112° |
| 2026-05-05 04:12 | 34.51781 | 113.84661 | 500 ft | 37 kts | 93° |
| 2026-05-05 04:12 | 34.51802 | 113.84862 | 503 ft | 15 kts | 58° |
| 2026-05-05 04:12 | 34.51863 | 113.84942 | 505 ft | 12 kts | 27° |
| 2026-05-05 04:12 | 34.51934 | 113.84977 | 505 ft | 10 kts | 22° |
| 2026-05-05 04:13 | 34.51970 | 113.84995 | 505 ft | 9 kts | 22° |
| 2026-05-05 04:14 | 34.51996 | 113.85008 | 505 ft | 9 kts | 22° |
| 2026-05-05 04:14 | 34.52048 | 113.85034 | 505 ft | 8 kts | 22° |
| 2026-05-05 04:14 | 34.52093 | 113.85057 | 505 ft | 7 kts | 22° |
| 2026-05-05 04:15 | 34.52128 | 113.85061 | 505 ft | 4 kts | 337° |
| 2026-05-05 04:15 | 34.52143 | 113.85038 | 505 ft | 3 kts | 300° |
| 2026-05-05 04:15 | 34.52151 | 113.85017 | 505 ft | 3 kts | 292° |
| 2026-05-05 04:15 | 34.52158 | 113.84994 | 505 ft | 2 kts | 291° |
| 2026-05-05 04:16 | 34.52160 | 113.84989 | 505 ft | 0 kts | 291° |